Time;durP1;ratioP1;P1;durP2;ratioP2;P2;SDS_P1;SDS_P2;PMS_P1;PMS_P2;Temp;Humidity;BMP_temperature;BMP_pressure;BME280_temperature;BME280_humidity;BME280_pressure;Samples;Min_cycle;Max_cycle;Signal;HPM_P1;HPM_P2
2023/03/11 00:02:18;;;;;;;5.40;4.90;;;;;;;;;;5100300;28;20438;-44
2023/03/11 00:04:44;;;;;;;6.13;4.50;;;;;;;;;;5093951;28;20895;-44
2023/03/11 00:07:11;;;;;;;5.57;5.07;;;;;;;;;;5093010;28;20281;-44
2023/03/11 00:09:37;;;;;;;6.55;5.95;;;;;;;;;;5089151;28;20427;-44
2023/03/11 00:12:04;;;;;;;6.18;5.10;;;;;;;;;;5089384;28;20198;-44
2023/03/11 00:14:30;;;;;;;7.20;5.88;;;;;;;;;;5089072;28;20602;-44
2023/03/11 00:16:56;;;;;;;3.23;3.03;;;;;;;;;;5093688;28;20186;-43
2023/03/11 00:19:22;;;;;;;3.78;3.47;;;;;;;;;;5093573;28;20503;-44
2023/03/11 00:21:48;;;;;;;3.42;3.13;;;;;;;;;;5097900;28;20728;-44
2023/03/11 00:24:14;;;;;;;3.83;3.50;;;;;;;;;;5093878;28;20252;-44
2023/03/11 00:26:41;;;;;;;4.77;4.27;;;;;;;;;;5099296;28;20786;-44
2023/03/11 00:29:07;;;;;;;6.60;5.05;;;;;;;;;;5093550;28;20427;-43
2023/03/11 00:31:33;;;;;;;7.10;3.80;;;;;;;;;;5092907;28;20649;-43
2023/03/11 00:33:59;;;;;;;6.22;4.13;;;;;;;;;;5093299;28;20407;-44
2023/03/11 00:36:32;;;;;;;9.80;5.03;;;;;;;;;;5092413;28;20645;-44
2023/03/11 00:38:59;;;;;;;4.47;4.07;;;;;;;;;;5091677;28;20412;-43
2023/03/11 00:41:25;;;;;;;6.30;4.32;;;;;;;;;;5088934;28;20173;-43
2023/03/11 00:43:51;;;;;;;7.80;5.20;;;;;;;;;;5093549;28;20319;-44
2023/03/11 00:46:17;;;;;;;5.22;3.67;;;;;;;;;;5098410;28;20797;-44
2023/03/11 00:48:43;;;;;;;14.23;3.90;;;;;;;;;;5093190;28;20277;-44
2023/03/11 00:51:13;;;;;;;3.23;2.93;;;;;;;;;;5091345;28;20396;-44
2023/03/11 00:53:39;;;;;;;7.10;5.93;;;;;;;;;;5090726;28;20763;-43
2023/03/11 00:56:10;;;;;;;9.70;6.40;;;;;;;;;;5093291;28;20184;-44
2023/03/11 00:58:36;;;;;;;11.85;7.20;;;;;;;;;;5092877;28;20423;-44
2023/03/11 01:01:08;;;;;;;11.20;5.95;;;;;;;;;;5092245;28;20176;-44
2023/03/11 01:03:35;;;;;;;7.53;6.30;;;;;;;;;;5093121;28;20190;-44
2023/03/11 01:06:01;;;;;;;12.93;7.05;;;;;;;;;;5092122;28;20691;-44
2023/03/11 01:08:28;;;;;;;4.87;3.80;;;;;;;;;;5092813;28;20182;-43
2023/03/11 01:10:54;;;;;;;4.45;3.78;;;;;;;;;;5088498;28;20481;-44
2023/03/11 01:13:20;;;;;;;8.10;5.57;;;;;;;;;;5086709;28;20190;-44
2023/03/11 01:15:46;;;;;;;9.05;6.07;;;;;;;;;;5092414;28;20280;-43
2023/03/11 01:18:13;;;;;;;5.80;4.30;;;;;;;;;;5092307;28;20581;-43
2023/03/11 01:20:39;;;;;;;6.25;3.63;;;;;;;;;;5092451;28;20804;-44
2023/03/11 01:23:05;;;;;;;11.52;5.38;;;;;;;;;;5092654;28;20181;-44
2023/03/11 01:25:31;;;;;;;6.07;4.45;;;;;;;;;;5092566;28;20708;-43
2023/03/11 01:27:58;;;;;;;7.28;5.00;;;;;;;;;;5092230;28;20260;-43
2023/03/11 01:30:24;;;;;;;9.13;5.82;;;;;;;;;;5091626;28;20174;-43
2023/03/11 01:32:51;;;;;;;3.13;2.90;;;;;;;;;;5093488;28;20768;-43
2023/03/11 01:35:18;;;;;;;6.97;4.72;;;;;;;;;;5092436;28;20205;-43
2023/03/11 01:37:45;;;;;;;6.85;3.78;;;;;;;;;;5093940;28;20185;-43
2023/03/11 01:40:15;;;;;;;6.03;4.65;;;;;;;;;;5089118;28;20166;-44
2023/03/11 01:42:41;;;;;;;6.78;4.82;;;;;;;;;;5092290;28;20357;-43
2023/03/11 01:45:28;;;;;;;6.80;4.78;;;;;;;;;;5091303;28;20230;-43
2023/03/11 01:47:55;;;;;;;5.20;4.15;;;;;;;;;;5089944;28;20684;-43
2023/03/11 01:50:21;;;;;;;7.25;4.53;;;;;;;;;;5091467;28;20234;-44
2023/03/11 01:52:47;;;;;;;4.72;3.55;;;;;;;;;;5092101;28;20231;-43
2023/03/11 01:55:14;;;;;;;4.30;3.97;;;;;;;;;;5091981;28;20177;-43
2023/03/11 02:00:44;;;;;;;6.93;5.53;;;;;;;;;;5088003;28;20196;-45
2023/03/11 02:03:13;;;;;;;6.32;4.60;;;;;;;;;;5091795;28;20284;-43
2023/03/11 02:05:40;;;;;;;5.15;4.57;;;;;;;;;;5091775;28;20181;-43
2023/03/11 02:08:06;;;;;;;4.90;3.55;;;;;;;;;;5091841;28;20178;-43
2023/03/11 02:10:32;;;;;;;4.50;4.10;;;;;;;;;;5089761;28;20641;-43
2023/03/11 02:12:58;;;;;;;5.28;3.97;;;;;;;;;;5091278;28;20697;-43
2023/03/11 02:15:25;;;;;;;6.57;3.25;;;;;;;;;;5090507;28;20189;-43
2023/03/11 02:17:51;;;;;;;5.20;4.38;;;;;;;;;;5096956;28;20181;-43
2023/03/11 02:20:27;;;;;;;7.15;4.43;;;;;;;;;;5090920;28;20569;-44
2023/03/11 02:22:56;;;;;;;5.82;4.15;;;;;;;;;;5091964;28;20216;-43
2023/03/11 02:25:35;;;;;;;5.88;3.83;;;;;;;;;;5091719;28;20169;-43
2023/03/11 02:28:03;;;;;;;2.90;2.70;;;;;;;;;;5083603;28;20187;-42
2023/03/11 02:30:30;;;;;;;6.00;3.85;;;;;;;;;;5090871;28;20188;-43
2023/03/11 02:32:56;;;;;;;7.88;3.60;;;;;;;;;;5098734;28;20224;-42
2023/03/11 02:35:22;;;;;;;7.65;4.78;;;;;;;;;;5088163;28;20219;-42
2023/03/11 02:37:50;;;;;;;14.40;5.32;;;;;;;;;;5092482;28;20174;-43
2023/03/11 02:40:26;;;;;;;13.23;4.82;;;;;;;;;;5091200;28;20173;-43
2023/03/11 02:42:56;;;;;;;4.95;4.53;;;;;;;;;;5091379;28;20207;-43
2023/03/11 02:45:24;;;;;;;7.50;5.22;;;;;;;;;;5091422;28;20212;-43
2023/03/11 02:47:51;;;;;;;7.75;3.47;;;;;;;;;;5085051;28;20753;-42
2023/03/11 02:50:18;;;;;;;7.25;4.13;;;;;;;;;;5085029;28;20192;-43
2023/03/11 02:52:44;;;;;;;4.00;3.30;;;;;;;;;;5092021;28;20718;-42
2023/03/11 02:55:14;;;;;;;5.63;5.13;;;;;;;;;;5091530;28;20634;-43
2023/03/11 02:57:41;;;;;;;5.97;4.60;;;;;;;;;;5096826;28;20273;-42
2023/03/11 03:00:12;;;;;;;7.38;4.50;;;;;;;;;;5090953;28;20178;-42
2023/03/11 03:02:38;;;;;;;6.72;4.20;;;;;;;;;;5091305;28;20190;-42
2023/03/11 03:05:05;;;;;;;9.60;3.60;;;;;;;;;;5091306;28;20220;-42
2023/03/11 03:07:31;;;;;;;7.18;4.45;;;;;;;;;;5091578;28;20466;-42
2023/03/11 03:09:57;;;;;;;5.43;3.17;;;;;;;;;;5091211;28;20174;-42
2023/03/11 03:12:23;;;;;;;8.23;3.57;;;;;;;;;;5081326;28;20259;-42
2023/03/11 03:14:49;;;;;;;4.45;3.17;;;;;;;;;;5091991;28;20868;-43
2023/03/11 03:17:15;;;;;;;5.83;3.50;;;;;;;;;;5099643;28;20264;-42
2023/03/11 03:19:41;;;;;;;4.80;4.10;;;;;;;;;;5095244;28;20419;-42
2023/03/11 03:22:06;;;;;;;3.93;3.50;;;;;;;;;;5094601;28;20458;-42
2023/03/11 03:24:32;;;;;;;4.83;4.33;;;;;;;;;;5095051;28;20426;-43
2023/03/11 03:26:58;;;;;;;3.80;3.50;;;;;;;;;;5090310;28;20460;-42
2023/03/11 03:29:24;;;;;;;16.03;4.30;;;;;;;;;;5088805;28;20442;-42
2023/03/11 03:31:50;;;;;;;11.40;4.43;;;;;;;;;;5094420;28;20431;-42
2023/03/11 03:34:16;;;;;;;8.73;3.90;;;;;;;;;;5094926;28;20442;-42
2023/03/11 03:36:42;;;;;;;9.60;3.53;;;;;;;;;;5098427;28;20414;-42
2023/03/11 03:39:08;;;;;;;4.95;3.22;;;;;;;;;;5094810;28;20406;-42
2023/03/11 03:41:34;;;;;;;6.43;3.87;;;;;;;;;;5092353;28;20268;-42
2023/03/11 03:44:00;;;;;;;4.83;4.30;;;;;;;;;;5087834;28;20420;-42
2023/03/11 03:46:26;;;;;;;4.90;3.70;;;;;;;;;;5088679;28;20459;-42
2023/03/11 03:48:52;;;;;;;6.47;3.63;;;;;;;;;;5094496;28;20407;-42
2023/03/11 03:51:18;;;;;;;8.20;3.73;;;;;;;;;;5094050;28;20483;-42
2023/03/11 03:53:47;;;;;;;4.63;3.93;;;;;;;;;;5094724;28;20411;-42
2023/03/11 03:56:14;;;;;;;8.95;4.47;;;;;;;;;;5094533;28;20773;-43
2023/03/11 03:58:40;;;;;;;6.05;4.00;;;;;;;;;;5096690;28;20668;-42
2023/03/11 04:01:07;;;;;;;7.27;3.63;;;;;;;;;;5094035;28;20166;-42
2023/03/11 04:03:34;;;;;;;6.20;4.60;;;;;;;;;;5088722;28;20896;-42
2023/03/11 04:06:14;;;;;;;17.70;5.75;;;;;;;;;;5093132;28;20198;-42
2023/03/11 04:08:40;;;;;;;4.93;3.53;;;;;;;;;;5096143;28;20170;-42
2023/03/11 04:11:06;;;;;;;6.83;4.27;;;;;;;;;;5093879;28;20223;-42
2023/03/11 04:13:32;;;;;;;5.27;4.77;;;;;;;;;;5094207;28;20427;-42
2023/03/11 04:15:58;;;;;;;8.03;3.47;;;;;;;;;;5091460;28;20926;-42
2023/03/11 04:18:24;;;;;;;3.45;3.15;;;;;;;;;;5095122;28;20404;-42
2023/03/11 04:20:50;;;;;;;9.63;5.17;;;;;;;;;;5093648;28;20174;-43
2023/03/11 04:23:16;;;;;;;5.07;4.20;;;;;;;;;;5093023;28;20430;-43
2023/03/11 04:25:42;;;;;;;8.65;4.10;;;;;;;;;;5089792;28;20409;-42
2023/03/11 04:28:08;;;;;;;8.43;3.90;;;;;;;;;;5094410;28;20170;-43
2023/03/11 04:30:34;;;;;;;5.33;3.83;;;;;;;;;;5093215;28;20461;-42
2023/03/11 04:33:00;;;;;;;7.70;3.70;;;;;;;;;;5093631;28;20516;-43
2023/03/11 04:35:26;;;;;;;10.85;4.32;;;;;;;;;;5093752;28;20419;-42
2023/03/11 04:37:52;;;;;;;5.30;4.03;;;;;;;;;;5093847;28;20185;-43
2023/03/11 04:40:18;;;;;;;7.63;4.10;;;;;;;;;;5093325;28;20408;-42
2023/03/11 04:42:44;;;;;;;10.67;4.57;;;;;;;;;;5096578;28;20440;-42
2023/03/11 04:45:10;;;;;;;11.73;4.40;;;;;;;;;;5091282;28;20427;-43
2023/03/11 04:47:36;;;;;;;17.70;4.75;;;;;;;;;;5092973;28;20459;-42
2023/03/11 04:50:02;;;;;;;7.80;5.27;;;;;;;;;;5093184;28;20247;-42
2023/03/11 04:52:28;;;;;;;9.38;4.03;;;;;;;;;;5098955;28;20481;-42
2023/03/11 04:54:54;;;;;;;9.30;4.67;;;;;;;;;;5095346;28;20661;-43
2023/03/11 04:57:20;;;;;;;13.07;3.97;;;;;;;;;;5093107;28;20903;-42
2023/03/11 04:59:46;;;;;;;8.05;4.50;;;;;;;;;;5093159;28;20832;-42
2023/03/11 05:02:12;;;;;;;7.45;3.88;;;;;;;;;;5092523;28;20208;-42
2023/03/11 05:04:38;;;;;;;19.33;5.87;;;;;;;;;;5092205;28;20182;-42
2023/03/11 05:07:04;;;;;;;4.50;4.10;;;;;;;;;;5092407;28;20455;-42
2023/03/11 05:09:30;;;;;;;7.37;4.43;;;;;;;;;;5093015;28;20404;-42
2023/03/11 05:11:56;;;;;;;9.80;4.63;;;;;;;;;;5092437;28;20431;-42
2023/03/11 05:14:22;;;;;;;5.23;4.73;;;;;;;;;;5092836;28;20404;-43
2023/03/11 05:16:48;;;;;;;5.57;4.00;;;;;;;;;;5090093;28;20432;-42
2023/03/11 05:19:29;;;;;;;7.30;4.30;;;;;;;;;;5096681;28;20796;-43
2023/03/11 05:21:55;;;;;;;5.70;4.45;;;;;;;;;;5092128;28;20935;-42
2023/03/11 05:24:21;;;;;;;8.07;5.30;;;;;;;;;;5098679;28;20185;-42
2023/03/11 05:26:47;;;;;;;6.27;5.30;;;;;;;;;;5092480;28;20447;-42
2023/03/11 05:29:13;;;;;;;5.95;4.45;;;;;;;;;;5092516;28;20415;-42
2023/03/11 05:31:39;;;;;;;9.45;4.47;;;;;;;;;;5093172;28;20197;-43
2023/03/11 05:34:05;;;;;;;7.47;4.43;;;;;;;;;;5097051;28;20173;-43
2023/03/11 05:36:31;;;;;;;9.85;5.57;;;;;;;;;;5093106;28;20407;-43
2023/03/11 05:38:57;;;;;;;10.00;5.83;;;;;;;;;;5092470;28;20181;-43
2023/03/11 05:44:27;;;;;;;9.32;4.55;;;;;;;;;;5096979;28;20565;-44
2023/03/11 05:46:53;;;;;;;12.48;4.90;;;;;;;;;;5091956;28;20857;-43
2023/03/11 05:49:20;;;;;;;9.33;4.43;;;;;;;;;;5097498;28;20169;-43
2023/03/11 05:51:46;;;;;;;4.97;4.10;;;;;;;;;;5092523;28;20466;-43
2023/03/11 05:54:13;;;;;;;5.50;3.77;;;;;;;;;;5092701;28;20197;-43
2023/03/11 05:56:40;;;;;;;5.53;5.03;;;;;;;;;;5086071;28;20923;-43
2023/03/11 05:59:06;;;;;;;12.27;4.70;;;;;;;;;;5093082;28;20173;-43
2023/03/11 06:01:32;;;;;;;4.53;4.13;;;;;;;;;;5088854;28;20224;-43
2023/03/11 06:03:59;;;;;;;5.17;3.77;;;;;;;;;;5093077;28;20558;-43
2023/03/11 06:06:25;;;;;;;4.65;4.15;;;;;;;;;;5092897;28;20443;-43
2023/03/11 06:08:51;;;;;;;8.63;4.53;;;;;;;;;;5095844;28;20292;-43
2023/03/11 06:11:17;;;;;;;10.48;4.30;;;;;;;;;;5091791;28;20415;-43
2023/03/11 06:13:43;;;;;;;4.38;3.95;;;;;;;;;;5092510;28;20282;-43
2023/03/11 06:16:09;;;;;;;8.07;4.70;;;;;;;;;;5090815;28;20572;-43
2023/03/11 06:18:35;;;;;;;11.33;5.33;;;;;;;;;;5092142;28;20415;-43
2023/03/11 06:21:01;;;;;;;8.90;4.70;;;;;;;;;;5086013;28;20435;-44
2023/03/11 06:23:28;;;;;;;7.32;4.75;;;;;;;;;;5090104;28;20436;-45
2023/03/11 06:26:01;;;;;;;7.25;4.32;;;;;;;;;;5086618;28;21165;-46
2023/03/11 06:28:28;;;;;;;7.88;4.30;;;;;;;;;;5091161;28;20174;-45
2023/03/11 06:30:55;;;;;;;4.18;3.75;;;;;;;;;;5090711;28;20189;-45
2023/03/11 06:33:22;;;;;;;3.47;3.05;;;;;;;;;;5091851;28;20192;-45
2023/03/11 06:35:58;;;;;;;6.95;3.65;;;;;;;;;;5086839;28;20173;-45
2023/03/11 06:38:24;;;;;;;8.52;3.75;;;;;;;;;;5088595;28;20571;-45
2023/03/11 06:40:50;;;;;;;6.63;3.88;;;;;;;;;;5083172;28;20236;-45
2023/03/11 06:43:16;;;;;;;8.38;3.50;;;;;;;;;;5093413;28;20201;-46
2023/03/11 06:45:42;;;;;;;10.07;4.67;;;;;;;;;;5087471;28;20256;-45
2023/03/11 06:48:08;;;;;;;4.47;3.90;;;;;;;;;;5093660;28;20455;-44
2023/03/11 06:50:34;;;;;;;14.20;4.80;;;;;;;;;;5095324;28;20667;-44
2023/03/11 06:53:01;;;;;;;5.80;3.20;;;;;;;;;;5091008;28;20979;-45
2023/03/11 06:55:27;;;;;;;4.93;3.88;;;;;;;;;;5094161;28;20399;-46
2023/03/11 06:57:53;;;;;;;5.15;3.42;;;;;;;;;;5094227;28;20688;-45
2023/03/11 07:00:19;;;;;;;7.47;3.60;;;;;;;;;;5093882;28;20177;-45
2023/03/11 07:02:45;;;;;;;4.97;3.28;;;;;;;;;;5094542;28;20438;-45
2023/03/11 07:05:11;;;;;;;3.50;3.23;;;;;;;;;;5092326;28;20177;-45
2023/03/11 07:07:37;;;;;;;3.70;3.00;;;;;;;;;;5091524;28;20467;-45
2023/03/11 07:10:04;;;;;;;6.50;3.53;;;;;;;;;;5094531;28;20418;-45
2023/03/11 07:12:30;;;;;;;7.15;3.25;;;;;;;;;;5095051;28;20557;-45
2023/03/11 07:14:57;;;;;;;5.35;3.25;;;;;;;;;;5095152;28;20193;-45
2023/03/11 07:17:23;;;;;;;4.82;2.97;;;;;;;;;;5089073;28;20205;-46
2023/03/11 07:19:49;;;;;;;7.00;2.47;;;;;;;;;;5094767;28;20551;-46
2023/03/11 07:22:16;;;;;;;4.78;2.60;;;;;;;;;;5091040;28;20194;-46
2023/03/11 07:24:44;;;;;;;8.55;3.00;;;;;;;;;;5090019;28;20219;-47
2023/03/11 07:27:10;;;;;;;4.15;2.47;;;;;;;;;;5086959;28;20823;-45
2023/03/11 07:29:36;;;;;;;5.63;2.53;;;;;;;;;;5090422;28;20181;-47
2023/03/11 07:32:02;;;;;;;1.97;1.87;;;;;;;;;;5089484;28;21502;-46
2023/03/11 07:34:28;;;;;;;12.37;2.67;;;;;;;;;;5088742;28;20462;-46
2023/03/11 07:36:54;;;;;;;4.87;2.33;;;;;;;;;;5086828;28;20418;-45
2023/03/11 07:39:21;;;;;;;3.37;2.00;;;;;;;;;;5094913;28;20412;-47
2023/03/11 07:41:47;;;;;;;3.80;1.93;;;;;;;;;;5094180;28;20438;-45
2023/03/11 07:44:13;;;;;;;6.80;2.80;;;;;;;;;;5102436;28;20402;-46
2023/03/11 07:46:40;;;;;;;3.43;1.90;;;;;;;;;;5092999;28;20463;-46
2023/03/11 07:49:06;;;;;;;2.77;2.00;;;;;;;;;;5089078;28;20766;-46
2023/03/11 07:51:33;;;;;;;3.70;2.37;;;;;;;;;;5093993;28;20420;-45
2023/03/11 07:54:00;;;;;;;1.70;1.50;;;;;;;;;;5093338;28;20429;-46
2023/03/11 07:56:28;;;;;;;5.53;2.33;;;;;;;;;;5094632;28;20412;-47
2023/03/11 07:58:54;;;;;;;3.33;1.90;;;;;;;;;;5093507;28;20766;-47
2023/03/11 08:01:22;;;;;;;7.90;2.67;;;;;;;;;;5092025;28;20476;-45
2023/03/11 08:03:49;;;;;;;5.33;2.17;;;;;;;;;;5095827;28;20437;-45
2023/03/11 08:06:16;;;;;;;6.30;1.80;;;;;;;;;;5093579;28;20490;-46
2023/03/11 08:08:43;;;;;;;2.87;1.80;;;;;;;;;;5098849;28;20454;-46
2023/03/11 08:11:09;;;;;;;4.67;2.10;;;;;;;;;;5086907;28;20955;-46
2023/03/11 08:13:35;;;;;;;2.63;2.30;;;;;;;;;;5093717;28;20431;-45
2023/03/11 08:16:05;;;;;;;2.97;2.17;;;;;;;;;;5093137;28;20427;-45
2023/03/11 08:18:31;;;;;;;3.03;1.90;;;;;;;;;;5087424;28;20519;-47
2023/03/11 08:20:57;;;;;;;6.87;2.50;;;;;;;;;;5091406;28;20408;-47
2023/03/11 08:23:23;;;;;;;3.37;2.60;;;;;;;;;;5093408;28;20518;-46
2023/03/11 08:25:49;;;;;;;4.30;1.90;;;;;;;;;;5093330;28;20500;-45
2023/03/11 08:28:15;;;;;;;5.97;2.23;;;;;;;;;;5093162;28;20435;-45
2023/03/11 08:30:42;;;;;;;3.37;1.90;;;;;;;;;;5092770;28;20848;-45
2023/03/11 08:33:08;;;;;;;4.97;2.23;;;;;;;;;;5090379;28;20447;-45
2023/03/11 08:35:34;;;;;;;2.40;1.80;;;;;;;;;;5089259;28;20420;-45
2023/03/11 08:38:00;;;;;;;2.33;1.80;;;;;;;;;;5092224;28;20437;-45
2023/03/11 08:40:25;;;;;;;4.70;2.27;;;;;;;;;;5092845;28;20432;-45
2023/03/11 08:42:51;;;;;;;2.30;2.10;;;;;;;;;;5091363;28;20473;-45
2023/03/11 08:45:17;;;;;;;7.13;2.10;;;;;;;;;;5090690;28;20422;-46
2023/03/11 08:47:43;;;;;;;15.13;2.80;;;;;;;;;;5084079;28;20516;-45
2023/03/11 08:50:14;;;;;;;2.73;2.33;;;;;;;;;;5098557;28;20907;-46
2023/03/11 08:52:40;;;;;;;2.67;2.23;;;;;;;;;;5085524;28;20444;-47
2023/03/11 08:55:07;;;;;;;7.77;2.07;;;;;;;;;;5084912;28;20644;-45
2023/03/11 08:57:33;;;;;;;2.87;2.07;;;;;;;;;;5083696;28;20919;-45
2023/03/11 08:59:59;;;;;;;4.80;1.97;;;;;;;;;;5097096;28;20461;-46
2023/03/11 09:02:25;;;;;;;4.60;2.10;;;;;;;;;;5083811;28;20506;-46
2023/03/11 09:04:51;;;;;;;3.10;2.07;;;;;;;;;;5085985;28;20414;-47
2023/03/11 09:07:17;;;;;;;2.10;1.90;;;;;;;;;;5082830;28;20892;-46
2023/03/11 09:09:43;;;;;;;3.40;2.07;;;;;;;;;;5083580;28;20416;-45
2023/03/11 09:12:12;;;;;;;6.53;1.43;;;;;;;;;;5085718;28;20515;-45
2023/03/11 09:14:38;;;;;;;3.17;1.50;;;;;;;;;;5092819;28;20446;-46
2023/03/11 09:17:04;;;;;;;2.53;1.50;;;;;;;;;;5091998;28;20408;-45
2023/03/11 09:19:30;;;;;;;3.40;1.80;;;;;;;;;;5087750;28;20423;-45
2023/03/11 09:21:59;;;;;;;2.73;2.00;;;;;;;;;;5090731;28;20999;-45
2023/03/11 09:24:25;;;;;;;7.33;1.70;;;;;;;;;;5092980;28;20490;-45
2023/03/11 09:26:51;;;;;;;1.57;1.33;;;;;;;;;;5092681;28;20549;-45
2023/03/11 09:29:17;;;;;;;5.10;1.80;;;;;;;;;;5094681;28;20412;-47
2023/03/11 09:31:43;;;;;;;2.33;1.57;;;;;;;;;;5094820;28;20424;-46
2023/03/11 09:34:10;;;;;;;4.63;1.77;;;;;;;;;;5093222;28;20415;-45
2023/03/11 09:36:36;;;;;;;2.20;1.73;;;;;;;;;;5097372;28;20475;-46
2023/03/11 09:39:02;;;;;;;1.63;1.53;;;;;;;;;;5092594;28;20915;-48
2023/03/11 09:41:40;;;;;;;1.87;1.60;;;;;;;;;;5091838;28;20453;-46
2023/03/11 09:44:12;;;;;;;2.60;1.20;;;;;;;;;;5092211;28;20403;-47
2023/03/11 09:46:50;;;;;;;1.80;1.23;;;;;;;;;;5089155;28;20451;-46
2023/03/11 09:49:34;;;;;;;1.87;1.57;;;;;;;;;;5085692;28;20627;-47
2023/03/11 09:52:08;;;;;;;2.37;1.20;;;;;;;;;;5090571;28;20432;-47
2023/03/11 09:54:37;;;;;;;1.60;1.50;;;;;;;;;;5090101;28;20785;-46
2023/03/11 09:57:03;;;;;;;1.30;1.20;;;;;;;;;;5092009;28;20411;-47
2023/03/11 09:59:31;;;;;;;2.60;1.30;;;;;;;;;;5094047;28;20425;-45
2023/03/11 10:01:58;;;;;;;2.53;1.20;;;;;;;;;;5093408;28;20785;-46
2023/03/11 10:04:30;;;;;;;4.63;1.60;;;;;;;;;;5092818;28;20894;-46
2023/03/11 10:06:56;;;;;;;2.90;1.50;;;;;;;;;;5093056;28;20490;-46
2023/03/11 10:10:01;;;;;;;1.40;1.30;;;;;;;;;;5093077;28;20416;-46
2023/03/11 10:12:27;;;;;;;4.90;1.30;;;;;;;;;;5064437;28;20432;-44
2023/03/11 10:15:10;;;;;;;3.23;1.20;;;;;;;;;;5069031;28;20424;-46
2023/03/11 10:17:36;;;;;;;4.90;1.30;;;;;;;;;;5082725;28;20415;-45
2023/03/11 10:20:24;;;;;;;4.10;1.43;;;;;;;;;;5087496;28;20425;-45
2023/03/11 10:23:06;;;;;;;1.53;1.33;;;;;;;;;;5090408;28;20472;-45
2023/03/11 10:25:53;;;;;;;2.30;1.30;;;;;;;;;;5091683;28;20506;-45
2023/03/11 10:28:20;;;;;;;3.00;1.10;;;;;;;;;;5085656;28;20430;-46
2023/03/11 10:30:47;;;;;;;2.20;1.33;;;;;;;;;;5090826;28;20941;-47
2023/03/11 10:33:19;;;;;;;4.17;1.23;;;;;;;;;;5085361;28;20448;-45
2023/03/11 10:35:47;;;;;;;2.50;1.10;;;;;;;;;;5093648;28;20425;-45
2023/03/11 10:38:19;;;;;;;4.10;1.43;;;;;;;;;;5091953;28;20450;-44
2023/03/11 10:40:46;;;;;;;6.87;1.80;;;;;;;;;;5091219;28;20810;-44
2023/03/11 10:43:23;;;;;;;1.20;1.10;;;;;;;;;;5091174;28;20405;-44
2023/03/11 10:45:50;;;;;;;3.00;1.53;;;;;;;;;;5091834;28;20815;-44
2023/03/11 10:48:17;;;;;;;1.90;0.93;;;;;;;;;;5089489;28;20812;-44
2023/03/11 10:50:46;;;;;;;1.93;1.37;;;;;;;;;;5085208;28;20418;-44
2023/03/11 10:53:15;;;;;;;3.53;1.50;;;;;;;;;;5090244;28;20431;-44
2023/03/11 10:55:51;;;;;;;1.50;1.00;;;;;;;;;;5091193;28;20404;-44
2023/03/11 10:58:19;;;;;;;2.57;1.33;;;;;;;;;;5091060;28;20450;-45
2023/03/11 11:00:45;;;;;;;2.73;1.00;;;;;;;;;;5090231;28;20415;-45
2023/03/11 11:03:15;;;;;;;1.30;1.20;;;;;;;;;;5090739;28;20399;-44
2023/03/11 11:05:41;;;;;;;1.47;1.37;;;;;;;;;;5091130;28;20386;-44
2023/03/11 11:08:11;;;;;;;3.30;1.37;;;;;;;;;;5090897;28;20484;-44
2023/03/11 11:10:48;;;;;;;1.30;1.20;;;;;;;;;;5089696;28;20393;-44
2023/03/11 11:13:14;;;;;;;1.60;1.50;;;;;;;;;;5085511;28;20508;-43
2023/03/11 11:15:41;;;;;;;3.90;1.40;;;;;;;;;;5098412;28;20456;-44
2023/03/11 11:18:16;;;;;;;1.83;1.10;;;;;;;;;;5087248;28;20435;-43
2023/03/11 11:20:53;;;;;;;1.70;1.30;;;;;;;;;;5090050;28;20508;-44
2023/03/11 11:23:32;;;;;;;1.33;1.23;;;;;;;;;;5090026;28;20544;-44
2023/03/11 11:26:03;;;;;;;3.00;1.10;;;;;;;;;;5095501;28;20427;-44
2023/03/11 11:28:30;;;;;;;1.33;1.23;;;;;;;;;;5090625;28;20498;-45
2023/03/11 11:30:57;;;;;;;2.73;1.20;;;;;;;;;;5089700;28;20890;-44
2023/03/11 11:33:28;;;;;;;1.83;1.30;;;;;;;;;;5090485;28;20419;-45
2023/03/11 11:35:55;;;;;;;2.67;1.23;;;;;;;;;;5099635;28;20777;-44
2023/03/11 11:38:23;;;;;;;3.27;1.30;;;;;;;;;;5095509;28;20416;-47
2023/03/11 11:40:50;;;;;;;5.07;2.47;;;;;;;;;;5101751;28;20420;-44
2023/03/11 11:43:17;;;;;;;2.33;1.70;;;;;;;;;;5094884;28;20483;-45
2023/03/11 11:45:53;;;;;;;2.70;1.10;;;;;;;;;;5096986;28;20503;-44
2023/03/11 11:48:48;;;;;;;5.07;1.10;;;;;;;;;;5095966;28;20517;-44
2023/03/11 11:51:22;;;;;;;2.13;1.20;;;;;;;;;;5074745;28;20422;-45
2023/03/11 11:53:56;;;;;;;4.30;1.73;;;;;;;;;;5092864;28;20451;-46
2023/03/11 11:56:25;;;;;;;1.93;1.60;;;;;;;;;;5100793;28;20897;-46
2023/03/11 11:58:53;;;;;;;1.90;1.50;;;;;;;;;;5093654;28;20888;-48
2023/03/11 12:01:24;;;;;;;4.83;1.10;;;;;;;;;;5091762;28;20403;-46
2023/03/11 12:03:56;;;;;;;3.20;1.13;;;;;;;;;;5088207;28;20403;-45
2023/03/11 12:06:26;;;;;;;7.60;1.43;;;;;;;;;;5099903;28;20892;-45
2023/03/11 12:09:13;;;;;;;5.10;1.27;;;;;;;;;;5094129;28;20426;-45
2023/03/11 12:11:47;;;;;;;1.63;1.17;;;;;;;;;;5095406;28;20419;-45
2023/03/11 12:14:19;;;;;;;2.63;1.50;;;;;;;;;;5088382;28;20434;-44
2023/03/11 12:16:50;;;;;;;1.70;1.40;;;;;;;;;;5095624;28;20414;-44
2023/03/11 12:19:49;;;;;;;6.43;1.53;;;;;;;;;;5094798;28;20840;-46
2023/03/11 12:22:23;;;;;;;1.33;1.10;;;;;;;;;;5083491;28;20445;-44
2023/03/11 12:25:11;;;;;;;2.70;1.80;;;;;;;;;;5092007;28;20458;-44
2023/03/11 12:27:46;;;;;;;1.93;1.30;;;;;;;;;;5091136;28;20977;-46
2023/03/11 12:30:17;;;;;;;2.97;1.50;;;;;;;;;;5082657;28;20420;-46
2023/03/11 12:32:47;;;;;;;1.50;1.13;;;;;;;;;;5090295;28;20423;-46
2023/03/11 12:35:26;;;;;;;1.63;1.37;;;;;;;;;;5093212;28;20759;-47
2023/03/11 12:38:06;;;;;;;4.23;1.30;;;;;;;;;;5093331;28;20944;-48
2023/03/11 12:40:41;;;;;;;1.90;1.80;;;;;;;;;;5092643;28;20396;-46
2023/03/11 12:43:28;;;;;;;2.40;1.20;;;;;;;;;;5094004;28;20483;-45
2023/03/11 12:45:58;;;;;;;3.73;1.50;;;;;;;;;;5087859;28;20417;-46
2023/03/11 12:48:27;;;;;;;4.13;1.60;;;;;;;;;;5094554;28;20473;-46
2023/03/11 12:50:59;;;;;;;2.90;1.50;;;;;;;;;;5096728;28;20463;-46
2023/03/11 12:53:47;;;;;;;6.63;1.80;;;;;;;;;;5089862;28;20460;-45
2023/03/11 12:56:20;;;;;;;2.50;1.77;;;;;;;;;;5084251;28;20905;-47
2023/03/11 12:58:46;;;;;;;2.10;1.63;;;;;;;;;;5094270;28;20412;-44
2023/03/11 13:01:25;;;;;;;2.40;2.20;;;;;;;;;;5094028;28;20421;-46
2023/03/11 13:03:58;;;;;;;3.87;2.40;;;;;;;;;;5094949;28;20415;-46
2023/03/11 13:06:37;;;;;;;6.93;2.17;;;;;;;;;;5095286;28;20492;-47
2023/03/11 13:09:03;;;;;;;2.83;1.93;;;;;;;;;;5095404;28;20404;-45
2023/03/11 13:11:29;;;;;;;2.80;1.97;;;;;;;;;;5094541;28;20447;-45
2023/03/11 13:14:10;;;;;;;3.37;1.70;;;;;;;;;;5095306;28;20423;-44
2023/03/11 13:16:37;;;;;;;2.23;1.43;;;;;;;;;;5094590;28;20481;-46
2023/03/11 13:19:22;;;;;;;4.63;1.80;;;;;;;;;;5093610;28;20430;-46
2023/03/11 13:21:48;;;;;;;2.70;1.53;;;;;;;;;;5092750;28;20425;-46
2023/03/11 13:24:20;;;;;;;1.60;1.50;;;;;;;;;;5085120;28;20425;-45
2023/03/11 13:26:58;;;;;;;2.03;1.53;;;;;;;;;;5092260;28;20461;-46
2023/03/11 13:29:28;;;;;;;3.43;1.67;;;;;;;;;;5091999;28;20454;-46
2023/03/11 13:31:53;;;;;;;5.63;1.70;;;;;;;;;;5091344;28;20454;-47
2023/03/11 13:34:28;;;;;;;3.17;2.23;;;;;;;;;;5092468;28;20405;-48
2023/03/11 13:37:03;;;;;;;4.60;1.67;;;;;;;;;;5092835;28;20947;-46
2023/03/11 13:39:38;;;;;;;2.27;1.63;;;;;;;;;;5093109;28;20498;-46
2023/03/11 13:42:17;;;;;;;2.27;1.90;;;;;;;;;;5092856;28;20427;-49
2023/03/11 13:44:44;;;;;;;3.17;1.63;;;;;;;;;;5094202;28;20950;-46
2023/03/11 13:47:15;;;;;;;1.77;1.40;;;;;;;;;;5094656;28;20523;-48
2023/03/11 13:49:46;;;;;;;2.93;1.20;;;;;;;;;;5094228;28;20422;-48
2023/03/11 13:52:26;;;;;;;3.87;1.60;;;;;;;;;;5085117;28;21009;-46
2023/03/11 13:54:52;;;;;;;1.57;1.30;;;;;;;;;;5091794;28;20428;-49
2023/03/11 13:57:23;;;;;;;7.53;1.50;;;;;;;;;;5093371;28;20405;-47
2023/03/11 13:59:54;;;;;;;2.70;1.60;;;;;;;;;;5092724;28;20459;-47
2023/03/11 14:02:21;;;;;;;3.20;1.47;;;;;;;;;;5092176;28;20451;-45
2023/03/11 14:04:48;;;;;;;2.40;1.50;;;;;;;;;;5090311;28;20434;-48
2023/03/11 14:07:19;;;;;;;1.60;1.40;;;;;;;;;;5088962;28;20491;-48
2023/03/11 14:09:45;;;;;;;1.70;1.33;;;;;;;;;;5093403;28;20959;-48
2023/03/11 14:12:11;;;;;;;1.40;1.30;;;;;;;;;;5092880;28;20526;-48
2023/03/11 14:14:37;;;;;;;3.23;1.30;;;;;;;;;;5093391;28;20499;-49
2023/03/11 14:17:04;;;;;;;1.50;1.40;;;;;;;;;;5093148;28;20419;-46
2023/03/11 14:19:31;;;;;;;2.03;1.67;;;;;;;;;;5092755;28;20928;-48
2023/03/11 14:21:57;;;;;;;2.63;1.30;;;;;;;;;;5092225;28;20428;-47
2023/03/11 14:24:25;;;;;;;2.07;1.67;;;;;;;;;;5090835;28;20425;-47
2023/03/11 14:26:55;;;;;;;3.43;1.30;;;;;;;;;;5091508;28;20462;-48
2023/03/11 14:29:29;;;;;;;2.40;1.30;;;;;;;;;;5091267;28;20418;-48
2023/03/11 14:31:55;;;;;;;7.10;1.70;;;;;;;;;;5092511;28;20490;-47
2023/03/11 14:34:24;;;;;;;1.47;1.30;;;;;;;;;;5092628;28;20409;-47
2023/03/11 14:36:55;;;;;;;1.50;1.40;;;;;;;;;;5093146;28;20424;-48
2023/03/11 14:39:26;;;;;;;1.80;1.50;;;;;;;;;;5093110;28;20822;-47
2023/03/11 14:41:54;;;;;;;4.30;1.80;;;;;;;;;;5091254;28;20793;-46
2023/03/11 14:44:21;;;;;;;1.40;1.30;;;;;;;;;;5092922;28;20408;-45
2023/03/11 14:46:47;;;;;;;2.87;1.83;;;;;;;;;;5092271;28;20450;-46
2023/03/11 14:49:17;;;;;;;2.03;1.47;;;;;;;;;;5092221;28;20803;-47
2023/03/11 14:51:43;;;;;;;3.63;1.77;;;;;;;;;;5092190;28;20423;-45
2023/03/11 14:54:16;;;;;;;1.60;1.50;;;;;;;;;;5086324;28;20449;-47
2023/03/11 14:56:45;;;;;;;2.80;2.00;;;;;;;;;;5092139;28;20432;-47
2023/03/11 14:59:10;;;;;;;2.37;1.60;;;;;;;;;;5084764;28;20859;-47